Time;durP1;ratioP1;P1;durP2;ratioP2;P2;SDS_P1;SDS_P2;PMS_P1;PMS_P2;Temp;Humidity;BMP_temperature;BMP_pressure;BME280_temperature;BME280_humidity;BME280_pressure;Samples;Min_cycle;Max_cycle;Signal;HPM_P1;HPM_P2
2023/03/18 00:00:22;;;;;;;11.60;4.78;;;;;;;9.92;100.00;100418.06;6027698;23;20093;-73
2023/03/18 00:02:48;;;;;;;4.68;4.45;;;;;;;10.23;100.00;100460.97;5991454;23;20440;-73
2023/03/18 00:05:17;;;;;;;5.30;5.00;;;;;;;10.26;100.00;100460.78;6020480;23;20019;-72
2023/03/18 00:07:44;;;;;;;6.63;4.95;;;;;;;10.01;100.00;100421.13;6029437;23;20022;-72
2023/03/18 00:10:12;;;;;;;4.85;4.60;;;;;;;9.99;100.00;100439.53;6022593;23;20038;-71
2023/03/18 00:12:40;;;;;;;9.50;5.05;;;;;;;10.25;100.00;100508.94;6024310;23;20579;-71
2023/03/18 00:15:09;;;;;;;4.63;4.43;;;;;;;9.89;100.00;100420.84;6030564;23;20015;-73
2023/03/18 00:17:36;;;;;;;5.38;4.97;;;;;;;10.02;100.00;100431.50;6024752;23;20038;-73
2023/03/18 00:20:05;;;;;;;6.90;4.55;;;;;;;10.17;100.00;100449.03;6027215;23;20046;-70
2023/03/18 00:22:37;;;;;;;5.45;5.00;;;;;;;10.41;100.00;100467.00;6020492;23;20023;-74
2023/03/18 00:25:06;;;;;;;5.03;4.57;;;;;;;10.39;100.00;100468.88;6018568;23;20078;-72
2023/03/18 00:27:34;;;;;;;5.50;4.78;;;;;;;10.05;100.00;100418.22;6023408;23;20031;-72
2023/03/18 00:30:03;;;;;;;5.65;4.78;;;;;;;10.03;100.00;100416.63;6021692;23;20026;-72
2023/03/18 00:32:30;;;;;;;5.03;4.55;;;;;;;10.30;100.00;100462.38;5995503;23;20110;-71
2023/03/18 00:34:57;;;;;;;5.53;5.13;;;;;;;9.27;100.00;100308.00;6023054;23;20050;-73
2023/03/18 00:37:29;;;;;;;5.18;4.88;;;;;;;10.23;100.00;100453.09;6023084;23;20149;-71
2023/03/18 00:40:04;;;;;;;5.55;4.97;;;;;;;10.18;100.00;100452.50;6024273;23;20026;-71
2023/03/18 00:42:37;;;;;;;8.02;5.55;;;;;;;10.15;100.00;100463.16;6016339;23;20038;-71
2023/03/18 00:45:06;;;;;;;4.95;4.70;;;;;;;10.13;100.00;100463.22;6023568;23;20529;-71
2023/03/18 00:47:34;;;;;;;6.93;5.68;;;;;;;10.18;100.00;100444.63;6021525;23;20340;-71
2023/03/18 00:50:02;;;;;;;5.68;5.22;;;;;;;9.63;100.00;100353.28;6012548;23;20069;-71
2023/03/18 00:52:28;;;;;;;18.92;5.47;;;;;;;9.94;100.00;100418.81;6030979;23;20029;-73
2023/03/18 00:54:57;;;;;;;5.13;4.82;;;;;;;9.36;100.00;100359.03;6021515;23;20033;-73
2023/03/18 00:57:24;;;;;;;8.82;5.25;;;;;;;9.57;100.00;100401.59;6024200;23;20026;-71
2023/03/18 00:59:50;;;;;;;5.82;5.40;;;;;;;10.03;100.00;100463.81;6019578;23;20351;-73
2023/03/18 01:02:17;;;;;;;6.60;4.75;;;;;;;9.78;100.00;100418.81;6015948;23;20027;-72
2023/03/18 01:04:44;;;;;;;5.57;4.90;;;;;;;10.13;100.00;100462.41;6017936;23;20039;-73
2023/03/18 01:07:12;;;;;;;4.85;4.55;;;;;;;10.10;100.00;100460.78;6023512;23;20607;-71
2023/03/18 01:09:39;;;;;;;6.43;5.20;;;;;;;10.14;100.00;100453.59;6023604;23;20107;-71
2023/03/18 01:12:07;;;;;;;5.22;4.93;;;;;;;9.77;100.00;100393.50;6021859;23;20019;-72
2023/03/18 01:14:35;;;;;;;5.32;5.00;;;;;;;10.09;100.00;100469.56;6017243;23;20029;-72
2023/03/18 01:17:03;;;;;;;5.65;5.25;;;;;;;10.09;100.00;100455.63;6019644;23;20038;-72
2023/03/18 01:19:29;;;;;;;5.32;4.93;;;;;;;9.71;100.00;100398.25;6024324;23;20038;-71
2023/03/18 01:21:56;;;;;;;8.70;5.30;;;;;;;9.41;100.00;100346.53;6021068;23;20038;-72
2023/03/18 01:24:22;;;;;;;6.03;5.10;;;;;;;9.99;100.00;100456.09;6021582;23;20026;-71
2023/03/18 01:26:49;;;;;;;5.28;4.88;;;;;;;9.54;100.00;100392.13;6018795;23;20186;-73
2023/03/18 01:29:16;;;;;;;5.20;4.90;;;;;;;9.68;100.00;100388.78;5995376;23;20278;-71
2023/03/18 01:31:44;;;;;;;5.35;4.95;;;;;;;9.77;100.00;100400.53;6018868;23;20348;-73
2023/03/18 01:34:11;;;;;;;5.45;4.85;;;;;;;10.17;100.00;100459.50;5992832;23;20122;-71
2023/03/18 01:36:37;;;;;;;5.25;4.93;;;;;;;10.24;100.00;100449.53;6019893;23;20022;-72
2023/03/18 01:39:05;;;;;;;5.47;5.13;;;;;;;9.87;100.00;100387.78;6023614;23;20063;-72
2023/03/18 01:41:31;;;;;;;5.80;5.30;;;;;;;10.31;100.00;100445.69;6043026;23;20034;-71
2023/03/18 01:43:58;;;;;;;6.72;5.95;;;;;;;9.79;100.00;100354.13;6023308;23;20194;-72
2023/03/18 01:46:32;;;;;;;5.70;5.20;;;;;;;10.34;100.00;100442.91;6023425;23;20022;-71
2023/03/18 01:49:02;;;;;;;7.88;4.70;;;;;;;10.16;100.00;100407.16;6019764;23;20023;-71
2023/03/18 01:51:29;;;;;;;11.15;6.18;;;;;;;10.33;100.00;100435.13;6020919;23;20101;-72
2023/03/18 01:53:59;;;;;;;5.75;5.25;;;;;;;9.69;100.00;100347.69;6020845;23;20213;-74
2023/03/18 01:56:26;;;;;;;5.65;5.25;;;;;;;10.21;100.00;100417.41;6018621;23;20054;-71
2023/03/18 01:58:56;;;;;;;5.68;5.25;;;;;;;10.29;100.00;100434.41;6020623;23;20053;-73
2023/03/18 02:01:30;;;;;;;5.68;5.28;;;;;;;10.26;100.00;100426.69;6022725;23;20061;-73
2023/03/18 02:03:58;;;;;;;5.97;4.75;;;;;;;9.75;100.00;100353.44;5990829;23;20027;-71
2023/03/18 02:06:25;;;;;;;6.15;5.53;;;;;;;10.03;100.00;100399.13;6020822;23;20226;-73
2023/03/18 02:08:51;;;;;;;6.13;5.57;;;;;;;10.02;100.00;100412.31;6021660;23;20038;-71
2023/03/18 02:11:18;;;;;;;6.00;5.50;;;;;;;9.76;100.00;100398.81;6021796;23;20633;-71
2023/03/18 02:13:45;;;;;;;5.07;4.68;;;;;;;9.67;100.00;100388.84;5988745;23;20256;-70
2023/03/18 02:16:21;;;;;;;7.55;5.43;;;;;;;9.40;100.00;100368.41;6019042;23;20494;-71
2023/03/18 02:18:56;;;;;;;11.32;5.38;;;;;;;9.31;100.00;100374.16;6027285;23;20055;-70
2023/03/18 02:21:32;;;;;;;5.57;5.18;;;;;;;9.51;100.00;100415.00;6043758;23;20184;-71
2023/03/18 02:24:30;;;;;;;5.78;5.32;;;;;;;9.61;100.00;100425.88;6022676;23;20042;-73
2023/03/18 02:27:01;;;;;;;4.90;4.60;;;;;;;9.57;100.00;100425.16;5997187;23;20015;-72
2023/03/18 02:29:32;;;;;;;7.80;5.70;;;;;;;9.40;100.00;100410.31;6028714;23;20031;-73
2023/03/18 02:32:02;;;;;;;6.45;5.97;;;;;;;9.40;100.00;100407.69;6016671;23;20025;-74
2023/03/18 02:34:30;;;;;;;10.82;5.43;;;;;;;9.36;100.00;100414.88;6024580;23;20789;-72
2023/03/18 02:36:57;;;;;;;9.63;5.03;;;;;;;9.26;100.00;100407.56;6019779;23;20504;-72
2023/03/18 02:39:23;;;;;;;7.10;5.28;;;;;;;8.70;100.00;100331.88;6019513;23;20026;-70
2023/03/18 02:41:50;;;;;;;7.63;5.35;;;;;;;9.06;100.00;100411.19;6023214;23;20733;-71
2023/03/18 02:44:18;;;;;;;5.03;4.72;;;;;;;9.08;100.00;100422.44;6022248;23;20054;-71
2023/03/18 02:46:58;;;;;;;5.22;4.88;;;;;;;9.03;100.00;100429.69;6016192;23;20021;-74
2023/03/18 02:49:26;;;;;;;5.10;4.80;;;;;;;8.82;100.00;100402.81;6027227;23;20031;-72
2023/03/18 02:51:53;;;;;;;8.13;5.28;;;;;;;8.28;100.00;100330.44;6017565;23;20151;-72
2023/03/18 02:54:23;;;;;;;5.70;5.25;;;;;;;8.92;100.00;100427.59;6029324;23;20036;-72
2023/03/18 02:56:50;;;;;;;5.93;4.75;;;;;;;8.45;100.00;100360.16;6017621;23;20505;-71
2023/03/18 02:59:17;;;;;;;5.10;4.80;;;;;;;8.82;100.00;100431.59;6027534;23;20254;-71
2023/03/18 03:01:46;;;;;;;6.80;5.93;;;;;;;8.77;100.00;100427.44;6020107;23;20100;-71
2023/03/18 03:04:14;;;;;;;5.47;5.07;;;;;;;8.37;100.00;100368.34;6020290;23;20042;-72
2023/03/18 03:06:41;;;;;;;6.05;5.45;;;;;;;8.15;100.00;100338.00;6021396;23;20100;-72
2023/03/18 03:09:10;;;;;;;5.03;4.72;;;;;;;8.22;100.00;100363.84;6021443;23;20035;-71
2023/03/18 03:11:36;;;;;;;5.70;5.20;;;;;;;8.38;100.00;100394.41;6018064;23;20129;-71
2023/03/18 03:14:03;;;;;;;4.80;4.50;;;;;;;8.67;100.00;100427.97;6021903;23;20035;-72
2023/03/18 03:16:30;;;;;;;6.70;5.78;;;;;;;8.41;100.00;100388.22;6021313;23;20589;-71
2023/03/18 03:18:57;;;;;;;5.28;4.90;;;;;;;8.57;100.00;100422.31;6024840;23;20461;-71
2023/03/18 03:21:24;;;;;;;5.55;5.15;;;;;;;7.36;100.00;100225.06;6021424;23;20042;-72
2023/03/18 03:23:51;;;;;;;5.03;4.72;;;;;;;8.15;100.00;100360.69;6016150;23;20024;-72
2023/03/18 03:26:18;;;;;;;5.85;5.43;;;;;;;8.40;100.00;100402.19;6021095;23;20088;-73
2023/03/18 03:28:45;;;;;;;5.40;5.10;;;;;;;8.53;100.00;100429.47;6024543;23;20081;-72
2023/03/18 03:31:11;;;;;;;5.53;5.13;;;;;;;8.51;100.00;100426.06;6025471;23;20427;-70
2023/03/18 03:33:40;;;;;;;5.75;5.22;;;;;;;8.48;100.00;100430.59;6023654;23;20036;-71
2023/03/18 03:36:16;;;;;;;5.50;5.00;;;;;;;8.43;100.00;100422.16;6023530;23;20079;-72
2023/03/18 03:38:43;;;;;;;6.43;5.65;;;;;;;8.39;100.00;100421.41;6027869;23;20106;-72
2023/03/18 03:41:12;;;;;;;5.43;5.13;;;;;;;8.37;100.00;100425.88;6027636;23;20041;-72
2023/03/18 03:43:39;;;;;;;6.10;5.60;;;;;;;8.33;100.00;100422.53;6029893;23;20073;-71
2023/03/18 03:46:08;;;;;;;5.20;4.90;;;;;;;6.93;100.00;100200.94;6024124;23;20023;-71
2023/03/18 03:48:35;;;;;;;5.47;5.18;;;;;;;8.34;100.00;100436.47;6021259;23;20470;-71
2023/03/18 03:51:06;;;;;;;5.10;4.80;;;;;;;8.32;100.00;100443.56;6022305;23;20026;-72
2023/03/18 03:53:33;;;;;;;5.90;5.40;;;;;;;8.33;100.00;100445.22;6023445;23;20425;-70
2023/03/18 03:55:59;;;;;;;5.25;4.75;;;;;;;8.24;100.00;100424.72;6020634;23;20055;-71
2023/03/18 03:58:27;;;;;;;5.78;5.38;;;;;;;7.79;100.00;100358.88;6023801;23;20031;-70
2023/03/18 04:00:53;;;;;;;5.20;4.90;;;;;;;7.89;100.00;100394.09;6023659;23;20101;-73
2023/03/18 04:03:19;;;;;;;5.20;4.90;;;;;;;7.78;100.00;100357.19;5996390;23;20034;-70
2023/03/18 04:05:46;;;;;;;5.40;5.00;;;;;;;8.10;100.00;100415.78;6021977;23;20097;-73
2023/03/18 04:08:13;;;;;;;6.00;5.43;;;;;;;7.85;100.00;100386.47;6019159;23;20030;-71
2023/03/18 04:10:39;;;;;;;6.05;4.80;;;;;;;8.22;100.00;100445.75;6023366;23;20022;-72
2023/03/18 04:13:06;;;;;;;5.57;5.13;;;;;;;7.50;100.00;100336.72;6021521;23;20023;-73
2023/03/18 04:15:33;;;;;;;5.15;4.75;;;;;;;7.68;100.00;100363.75;5992863;23;21399;-73
2023/03/18 04:18:05;;;;;;;11.18;5.95;;;;;;;8.13;100.00;100444.38;6021036;23;20304;-71
2023/03/18 04:20:34;;;;;;;5.75;5.25;;;;;;;8.09;100.00;100442.81;6024600;23;20080;-72
2023/03/18 04:23:01;;;;;;;5.20;4.90;;;;;;;7.56;100.00;100372.97;6020968;23;20377;-72
2023/03/18 04:25:28;;;;;;;5.00;4.70;;;;;;;7.72;100.00;100400.09;6004975;23;20465;-72
2023/03/18 04:27:55;;;;;;;5.65;5.25;;;;;;;7.48;100.00;100359.44;6030163;23;20098;-72
2023/03/18 04:30:24;;;;;;;5.15;4.75;;;;;;;7.87;100.00;100429.91;6020372;23;20056;-71
2023/03/18 04:32:51;;;;;;;5.22;4.82;;;;;;;8.02;100.00;100451.88;6020919;23;20077;-71
2023/03/18 04:35:18;;;;;;;6.10;5.50;;;;;;;7.65;100.00;100411.72;6024508;23;20604;-72
2023/03/18 04:37:45;;;;;;;5.97;5.38;;;;;;;6.83;100.00;100267.47;6017538;23;20025;-72
2023/03/18 04:40:11;;;;;;;4.63;4.38;;;;;;;7.99;100.00;100459.84;6023230;23;20061;-73
2023/03/18 04:42:38;;;;;;;5.38;4.90;;;;;;;7.65;100.00;100397.81;6020502;23;20030;-72
2023/03/18 04:45:06;;;;;;;5.00;4.70;;;;;;;8.02;100.00;100479.75;6015033;23;20117;-73
2023/03/18 04:47:34;;;;;;;5.57;4.75;;;;;;;8.02;100.00;100458.84;6020102;23;20055;-71
2023/03/18 04:50:02;;;;;;;4.70;4.40;;;;;;;8.06;100.00;100455.19;6021985;23;20057;-71
2023/03/18 04:52:29;;;;;;;5.30;5.00;;;;;;;8.11;100.00;100456.66;6018914;23;20175;-71
2023/03/18 04:54:55;;;;;;;5.50;5.10;;;;;;;7.72;100.00;100399.25;5994417;23;20558;-71
2023/03/18 04:57:22;;;;;;;5.88;4.93;;;;;;;7.93;100.00;100428.78;6022652;23;20018;-71
2023/03/18 04:59:48;;;;;;;5.63;5.00;;;;;;;8.19;100.00;100479.84;5996937;23;20093;-70
2023/03/18 05:02:15;;;;;;;5.15;4.80;;;;;;;7.73;100.00;100395.72;6029496;23;20203;-72
2023/03/18 05:04:41;;;;;;;5.55;5.10;;;;;;;7.99;100.00;100444.16;6021095;23;20031;-72
2023/03/18 05:07:13;;;;;;;4.93;4.50;;;;;;;8.13;100.00;100469.69;6021284;23;20483;-72
2023/03/18 05:09:40;;;;;;;4.50;4.30;;;;;;;8.11;100.00;100471.50;5993478;23;20046;-71
2023/03/18 05:12:13;;;;;;;5.13;4.57;;;;;;;7.55;100.00;100372.13;6023429;23;20346;-74
2023/03/18 05:14:42;;;;;;;5.55;5.18;;;;;;;8.03;100.00;100426.59;6019803;23;20079;-73
2023/03/18 05:17:14;;;;;;;6.00;5.20;;;;;;;8.28;100.00;100455.03;6019717;23;20418;-73
2023/03/18 05:19:46;;;;;;;5.25;4.82;;;;;;;8.50;100.00;100470.59;6024627;23;20704;-71
2023/03/18 05:22:15;;;;;;;4.82;4.47;;;;;;;8.54;100.00;100477.41;6021556;23;20034;-71
2023/03/18 05:24:42;;;;;;;5.20;4.80;;;;;;;8.60;100.00;100471.88;6021254;23;20440;-72
2023/03/18 05:27:09;;;;;;;5.70;5.13;;;;;;;8.67;100.00;100475.88;6025563;23;20652;-73
2023/03/18 05:29:39;;;;;;;6.05;5.55;;;;;;;8.70;100.00;100475.75;6025255;23;20033;-73
2023/03/18 05:32:07;;;;;;;5.10;4.70;;;;;;;8.72;100.00;100476.53;6023526;23;20532;-72
2023/03/18 05:34:38;;;;;;;5.32;4.78;;;;;;;8.71;100.00;100481.84;6025299;23;20030;-73
2023/03/18 05:37:07;;;;;;;5.57;5.18;;;;;;;8.71;100.00;100485.28;6020480;23;20035;-72
2023/03/18 05:39:36;;;;;;;5.18;4.85;;;;;;;8.39;100.00;100429.25;6022592;23;20037;-74
2023/03/18 05:42:03;;;;;;;4.78;4.45;;;;;;;8.59;100.00;100463.19;6022747;23;20085;-74
2023/03/18 05:44:30;;;;;;;4.75;4.45;;;;;;;8.76;100.00;100492.94;6022960;23;20095;-71
2023/03/18 05:46:57;;;;;;;5.05;4.65;;;;;;;8.81;100.00;100490.09;6024615;23;20052;-72
2023/03/18 05:49:26;;;;;;;5.28;4.78;;;;;;;8.84;100.00;100489.94;6020562;23;20046;-71
2023/03/18 05:51:52;;;;;;;5.97;5.47;;;;;;;8.87;100.00;100489.78;6024919;23;20030;-70
2023/03/18 05:54:20;;;;;;;5.75;5.30;;;;;;;8.86;100.00;100488.94;6017354;23;20097;-69
2023/03/18 05:56:47;;;;;;;6.05;5.18;;;;;;;8.97;100.00;100496.28;6028804;23;20077;-68
2023/03/18 05:59:14;;;;;;;5.07;4.78;;;;;;;9.02;100.00;100514.34;6019874;23;20050;-69
2023/03/18 06:01:40;;;;;;;5.65;5.20;;;;;;;9.07;100.00;100522.84;6024169;23;21715;-70
2023/03/18 06:04:08;;;;;;;5.20;4.82;;;;;;;8.76;100.00;100441.44;6023088;23;20037;-69
2023/03/18 06:06:38;;;;;;;6.53;6.03;;;;;;;8.96;100.00;100468.38;6021061;23;20400;-69
2023/03/18 06:09:08;;;;;;;7.07;5.55;;;;;;;8.69;100.00;100420.88;6026057;23;20092;-69
2023/03/18 06:11:35;;;;;;;5.68;5.28;;;;;;;8.73;100.00;100433.75;6022747;23;20030;-70
2023/03/18 06:14:03;;;;;;;5.40;4.90;;;;;;;9.16;100.00;100501.44;6025522;23;20038;-69
2023/03/18 06:16:31;;;;;;;6.07;5.50;;;;;;;9.12;100.00;100506.00;6022673;23;20417;-70
2023/03/18 06:18:59;;;;;;;5.05;4.65;;;;;;;9.02;100.00;100507.38;6024121;23;20085;-69
2023/03/18 06:21:26;;;;;;;5.40;4.93;;;;;;;8.48;100.00;100433.22;6026581;23;20469;-69
2023/03/18 06:23:55;;;;;;;6.47;5.30;;;;;;;8.68;100.00;100484.56;6023780;23;21112;-69
2023/03/18 06:26:22;;;;;;;8.15;5.63;;;;;;;8.81;100.00;100505.78;6019485;23;20239;-71
2023/03/18 06:28:48;;;;;;;5.20;4.80;;;;;;;8.73;100.00;100516.63;6021022;23;20086;-69
2023/03/18 06:31:15;;;;;;;5.28;4.88;;;;;;;8.23;100.00;100431.75;6021754;23;20018;-68
2023/03/18 06:33:42;;;;;;;5.65;5.25;;;;;;;8.38;100.00;100467.63;6015797;23;20249;-69
2023/03/18 06:36:09;;;;;;;5.45;4.97;;;;;;;8.52;100.00;100492.31;6019356;23;20047;-70
2023/03/18 06:38:36;;;;;;;5.80;5.40;;;;;;;8.69;100.00;100518.53;6016540;23;20281;-70
2023/03/18 06:41:03;;;;;;;9.15;5.78;;;;;;;8.60;100.00;100511.13;6021257;23;20027;-69
2023/03/18 06:43:30;;;;;;;8.60;6.22;;;;;;;8.76;100.00;100526.94;6023556;23;20035;-69
2023/03/18 06:45:56;;;;;;;6.38;5.70;;;;;;;7.93;100.00;100394.81;6022122;23;20023;-69
2023/03/18 06:48:23;;;;;;;9.05;6.78;;;;;;;8.22;100.00;100413.50;6022904;23;20027;-71
2023/03/18 06:50:50;;;;;;;7.78;7.00;;;;;;;7.77;100.00;100326.75;6021048;23;20512;-71
2023/03/18 06:53:17;;;;;;;5.20;4.90;;;;;;;8.75;100.00;100481.59;6020681;23;20010;-70
2023/03/18 06:55:43;;;;;;;5.45;4.82;;;;;;;9.13;100.00;100531.25;6019609;23;20092;-68
2023/03/18 06:58:12;;;;;;;6.15;5.60;;;;;;;9.13;100.00;100517.31;6022674;23;20014;-70
2023/03/18 07:00:41;;;;;;;6.18;5.68;;;;;;;9.36;100.00;100532.75;6019329;23;20109;-71
2023/03/18 07:03:07;;;;;;;6.22;5.65;;;;;;;9.25;100.00;100495.75;6021821;23;20602;-70
2023/03/18 07:05:34;;;;;;;6.18;5.63;;;;;;;9.65;100.00;100522.56;6023885;23;20473;-68
2023/03/18 07:08:01;;;;;;;6.63;5.32;;;;;;;9.77;100.00;100529.78;6025566;23;20266;-69
2023/03/18 07:10:29;;;;;;;5.38;4.97;;;;;;;9.94;100.00;100526.31;6026104;23;20070;-72
2023/03/18 07:12:56;;;;;;;6.05;5.50;;;;;;;9.82;100.00;100477.13;6023906;23;20247;-70
2023/03/18 07:15:26;;;;;;;4.85;4.55;;;;;;;10.35;100.00;100530.31;6023992;23;20043;-69
2023/03/18 07:17:53;;;;;;;5.28;4.97;;;;;;;10.55;100.00;100527.44;6025537;23;20018;-69
2023/03/18 07:20:21;;;;;;;8.32;4.70;;;;;;;10.72;100.00;100544.91;6022255;23;20053;-67
2023/03/18 07:22:47;;;;;;;5.53;5.13;;;;;;;10.97;100.00;100540.91;6023511;23;20111;-69
2023/03/18 07:25:14;;;;;;;5.28;4.85;;;;;;;10.82;100.00;100478.75;6024222;23;20405;-68
2023/03/18 07:27:41;;;;;;;5.72;5.32;;;;;;;11.30;100.00;100532.84;6025886;23;20400;-68
2023/03/18 07:30:08;;;;;;;5.38;5.07;;;;;;;11.53;100.00;100539.41;6023602;23;20645;-68
2023/03/18 07:32:37;;;;;;;5.88;5.47;;;;;;;11.75;100.00;100546.03;6021407;23;20037;-71
2023/03/18 07:35:06;;;;;;;6.03;5.53;;;;;;;11.94;100.00;100543.16;6024185;23;20022;-69
2023/03/18 07:37:34;;;;;;;5.78;5.28;;;;;;;11.70;100.00;100466.59;6028061;23;20402;-71
2023/03/18 07:40:01;;;;;;;5.03;4.78;;;;;;;12.18;100.00;100520.63;6022797;23;20107;-71
2023/03/18 07:42:28;;;;;;;5.38;5.07;;;;;;;12.25;100.00;100513.22;6023593;23;20057;-70
2023/03/18 07:44:54;;;;;;;6.78;4.93;;;;;;;12.28;100.00;100485.84;5999172;23;20240;-71
2023/03/18 07:47:22;;;;;;;13.07;5.05;;;;;;;12.53;100.00;100508.84;6023327;23;20023;-70
2023/03/18 07:49:50;;;;;;;5.05;4.75;;;;;;;12.44;100.00;100481.31;6024160;23;20085;-72
2023/03/18 07:52:18;;;;;;;5.47;4.97;;;;;;;12.70;100.00;100502.50;6025690;23;20061;-69
2023/03/18 07:54:44;;;;;;;5.50;5.10;;;;;;;12.85;100.00;100498.00;6024790;23;20039;-70
2023/03/18 07:57:11;;;;;;;5.35;4.95;;;;;;;11.77;100.00;100313.63;6019529;23;20007;-71
2023/03/18 07:59:38;;;;;;;5.40;5.00;;;;;;;12.61;100.00;100442.53;6045545;23;20035;-70
2023/03/18 08:02:09;;;;;;;5.93;5.43;;;;;;;12.87;100.00;100506.66;6027141;23;20022;-71
2023/03/18 08:04:36;;;;;;;5.63;5.22;;;;;;;12.89;100.00;100474.03;6031320;23;20022;-70
2023/03/18 08:07:03;;;;;;;5.38;5.07;;;;;;;12.73;100.00;100452.28;6021164;23;20010;-70
2023/03/18 08:09:29;;;;;;;6.13;5.63;;;;;;;12.71;100.00;100426.03;6035559;23;20501;-71
2023/03/18 08:11:55;;;;;;;5.57;5.28;;;;;;;13.21;100.00;100494.78;6022943;23;20026;-71
2023/03/18 08:14:25;;;;;;;5.30;5.00;;;;;;;12.94;100.00;100439.47;6026435;23;20102;-69
2023/03/18 08:16:51;;;;;;;5.03;4.78;;;;;;;12.61;100.00;100414.44;6021481;23;20027;-69
2023/03/18 08:19:20;;;;;;;5.80;5.40;;;;;;;12.96;100.00;100485.84;6025770;23;20050;-70
2023/03/18 08:21:47;;;;;;;5.18;4.88;;;;;;;13.05;100.00;100494.06;6022571;23;20083;-68
2023/03/18 08:24:13;;;;;;;5.72;5.40;;;;;;;13.17;100.00;100496.75;6023401;23;20026;-70
2023/03/18 08:26:40;;;;;;;5.22;4.82;;;;;;;13.28;100.00;100492.56;6028094;23;20018;-69
2023/03/18 08:29:06;;;;;;;5.45;5.15;;;;;;;13.15;100.00;100461.78;5997884;23;20046;-69
2023/03/18 08:31:33;;;;;;;6.13;5.63;;;;;;;13.54;100.00;100493.47;6019094;23;20519;-67
2023/03/18 08:34:00;;;;;;;5.88;5.40;;;;;;;13.23;98.89;100428.78;6019532;23;20089;-70
2023/03/18 08:36:27;;;;;;;6.25;5.68;;;;;;;13.72;96.46;100479.03;6026519;23;20946;-71
2023/03/18 08:38:54;;;;;;;5.78;5.38;;;;;;;13.55;95.08;100426.59;6022996;23;20489;-70
2023/03/18 08:41:24;;;;;;;5.20;4.90;;;;;;;13.93;93.38;100452.09;6022709;23;19999;-70
2023/03/18 08:43:52;;;;;;;5.43;5.13;;;;;;;13.76;91.31;100403.19;6021865;23;20082;-70
2023/03/18 08:46:18;;;;;;;5.47;5.05;;;;;;;14.15;90.09;100428.53;6022098;23;20179;-69
2023/03/18 08:48:45;;;;;;;5.78;5.38;;;;;;;13.63;88.58;100336.44;6021202;23;20034;-70
2023/03/18 08:51:12;;;;;;;5.80;5.40;;;;;;;13.59;87.49;100317.38;6025777;23;20052;-69
2023/03/18 08:53:39;;;;;;;5.63;5.32;;;;;;;14.25;86.68;100420.81;6025199;23;20386;-71
2023/03/18 08:56:07;;;;;;;6.10;5.50;;;;;;;14.21;87.19;100406.13;6020193;23;20067;-72
2023/03/18 08:58:33;;;;;;;6.05;5.45;;;;;;;13.63;87.21;100317.97;6020379;23;20042;-70
2023/03/18 09:01:02;;;;;;;5.82;5.43;;;;;;;14.21;87.48;100406.13;6021694;23;20183;-72
2023/03/18 09:03:29;;;;;;;5.25;4.95;;;;;;;14.31;86.67;100407.16;6042866;23;20026;-69
2023/03/18 09:05:56;;;;;;;5.47;5.07;;;;;;;14.21;85.78;100374.44;6024602;23;20183;-68
2023/03/18 09:08:23;;;;;;;8.30;5.28;;;;;;;14.41;84.75;100393.28;5993764;23;20184;-69
2023/03/18 09:10:52;;;;;;;5.55;5.25;;;;;;;14.49;85.02;100397.06;6027066;23;20450;-70
2023/03/18 09:13:20;;;;;;;5.53;5.10;;;;;;;14.45;83.66;100371.84;6023769;23;20143;-68
2023/03/18 09:15:47;;;;;;;5.50;5.10;;;;;;;14.39;82.29;100324.75;6018070;23;20050;-70
2023/03/18 09:18:21;;;;;;;9.13;8.13;;;;;;;14.81;81.15;100371.88;6022668;23;20083;-69
2023/03/18 09:20:53;;;;;;;5.95;5.45;;;;;;;14.89;80.54;100351.88;5936937;23;20023;-71
2023/03/18 09:23:20;;;;;;;5.70;5.40;;;;;;;15.04;79.63;100344.56;6019075;23;20170;-70
2023/03/18 09:25:47;;;;;;;6.97;5.38;;;;;;;14.73;79.32;100280.84;6020971;23;20027;-70
2023/03/18 09:28:13;;;;;;;5.30;5.00;;;;;;;15.22;78.22;100318.50;6027471;23;20453;-69
2023/03/18 09:30:41;;;;;;;5.38;5.07;;;;;;;15.17;77.72;100307.44;6022002;23;20046;-69
2023/03/18 09:33:10;;;;;;;5.50;5.20;;;;;;;14.92;77.48;100276.78;6022652;23;20046;-69
2023/03/18 09:35:37;;;;;;;5.43;5.13;;;;;;;14.75;76.70;100247.25;6019310;23;20220;-70
2023/03/18 09:38:05;;;;;;;5.65;5.35;;;;;;;15.22;76.45;100312.38;6023702;23;20492;-70
2023/03/18 09:40:36;;;;;;;6.05;5.65;;;;;;;15.28;75.07;100285.47;6022279;23;20027;-71
2023/03/18 09:43:13;;;;;;;5.75;5.35;;;;;;;15.26;74.17;100271.53;5991299;23;20111;-69
2023/03/18 09:46:04;;;;;;;6.10;5.60;;;;;;;15.26;75.52;100284.75;6020226;23;20019;-68
2023/03/18 09:48:42;;;;;;;5.80;5.40;;;;;;;15.33;74.95;100284.16;6022532;23;20475;-70
2023/03/18 09:51:32;;;;;;;5.70;5.30;;;;;;;15.45;74.46;100255.03;6020976;23;20038;-70
2023/03/18 09:54:06;;;;;;;5.60;5.30;;;;;;;15.28;74.40;100241.34;6024254;23;20430;-71
2023/03/18 09:56:34;;;;;;;6.13;5.72;;;;;;;15.36;73.59;100232.81;6018589;23;20019;-72
2023/03/18 09:59:04;;;;;;;5.80;5.40;;;;;;;14.88;72.73;100145.91;6022719;23;20124;-70
2023/03/18 10:01:35;;;;;;;5.88;5.47;;;;;;;15.36;73.65;100211.66;5992800;23;20211;-69
2023/03/18 10:04:09;;;;;;;5.63;5.32;;;;;;;15.88;73.66;100248.97;6022004;23;20014;-71
2023/03/18 10:06:41;;;;;;;7.13;5.60;;;;;;;15.92;72.44;100230.06;6040258;23;20339;-69
2023/03/18 10:09:32;;;;;;;5.70;5.05;;;;;;;15.80;71.63;100201.13;6023714;23;20027;-69
2023/03/18 10:12:15;;;;;;;5.38;5.07;;;;;;;15.39;71.38;100125.97;6028063;23;20030;-71
2023/03/18 10:14:47;;;;;;;;;;;;;;;15.94;70.64;100209.59;6018184;23;20081;-69
2023/03/18 10:17:16;;;;;;;5.25;4.95;;;;;;;16.14;69.95;100204.47;6022278;23;20440;-70
2023/03/18 10:19:56;;;;;;;5.78;5.38;;;;;;;15.77;68.60;100101.66;6039431;23;20054;-70
2023/03/18 10:22:25;;;;;;;5.25;4.95;;;;;;;16.23;68.80;100174.56;6018242;23;20153;-70
2023/03/18 10:25:11;;;;;;;5.20;4.90;;;;;;;16.12;69.14;100169.34;6023799;23;20022;-69
2023/03/18 10:28:04;;;;;;;5.70;5.40;;;;;;;15.90;69.35;100159.72;5999794;23;20031;-71
2023/03/18 10:30:40;;;;;;;;;;;;;;;16.15;68.99;100179.66;6019681;23;20037;-70
2023/03/18 10:33:43;;;;;;;6.65;6.15;;;;;;;15.99;68.90;100158.09;6022537;23;20025;-70
2023/03/18 10:36:18;;;;;;;5.47;5.18;;;;;;;15.87;69.70;100157.31;5976777;23;20038;-71
2023/03/18 10:38:48;;;;;;;5.97;5.47;;;;;;;15.95;69.14;100157.50;6021785;23;20321;-69
2023/03/18 10:41:42;;;;;;;5.90;5.43;;;;;;;16.25;69.49;100180.56;6024595;23;20771;-70
2023/03/18 10:44:29;;;;;;;5.47;5.13;;;;;;;16.00;67.86;100086.50;6023386;23;20027;-70
2023/03/18 10:47:32;;;;;;;6.05;5.55;;;;;;;16.66;65.92;100123.22;6026183;23;20486;-70
2023/03/18 10:50:22;;;;;;;5.50;5.20;;;;;;;16.96;65.38;100113.59;6025777;23;20026;-69
2023/03/18 10:52:57;;;;;;;5.13;4.82;;;;;;;17.26;63.95;100112.66;6022054;23;20097;-70
2023/03/18 10:55:36;;;;;;;5.90;5.40;;;;;;;17.00;63.34;100046.06;6026092;23;20074;-69
2023/03/18 10:58:15;;;;;;;5.30;5.00;;;;;;;17.34;64.27;100117.28;6021964;23;20240;-70
2023/03/18 11:00:43;;;;;;;6.25;5.85;;;;;;;16.98;61.96;99996.78;6024864;23;20426;-70
2023/03/18 11:03:29;;;;;;;6.70;6.30;;;;;;;17.24;61.78;100048.31;6026109;23;20494;-70
2023/03/18 11:05:57;;;;;;;6.25;5.53;;;;;;;17.63;62.80;100100.53;6020434;23;20210;-71
2023/03/18 11:08:33;;;;;;;5.40;5.10;;;;;;;17.62;62.19;100081.13;6025559;23;20038;-71
2023/03/18 11:11:34;;;;;;;5.65;5.35;;;;;;;17.67;61.72;100078.03;6025816;23;20084;-71
2023/03/18 11:14:03;;;;;;;6.05;5.35;;;;;;;17.43;60.97;100020.94;6015451;23;20101;-69
2023/03/18 11:16:33;;;;;;;5.80;5.50;;;;;;;17.32;61.72;100032.56;6021113;23;20018;-71
2023/03/18 11:19:08;;;;;;;5.88;5.40;;;;;;;17.37;63.48;100105.56;6022448;23;20080;-71
2023/03/18 11:21:36;;;;;;;5.75;5.45;;;;;;;17.07;64.32;100094.91;6019249;23;20471;-70
2023/03/18 11:24:23;;;;;;;5.40;5.10;;;;;;;16.86;63.41;100038.53;6029457;23;20023;-69
2023/03/18 11:26:55;;;;;;;5.90;5.50;;;;;;;17.06;63.87;100089.72;6023349;23;20030;-69
2023/03/18 11:29:26;;;;;;;5.88;5.47;;;;;;;17.59;64.16;100153.03;6023502;23;20026;-69
2023/03/18 11:31:57;;;;;;;5.78;5.47;;;;;;;18.13;63.66;100166.75;6026703;23;20026;-70
2023/03/18 11:34:28;;;;;;;5.75;5.22;;;;;;;17.23;61.67;99934.44;6023853;23;20433;-70